NPV7634 PACV-PAHO
Flight info
| Callsign | NPV7634 |
|---|---|
| Flight time | 0h 35m |
| Altitude | 32000 |
| Route | JOH WUXAN JEKEX IRACI HUMOD FOVPU |
| Aircraft | B737/M-SDE2E3FGHIRWXY/LB1 |
Departure
| Time | 2026-05-06 08:54 |
|---|---|
| Airport | Merle K (Mudhole) Smith Airport (PACV) |
Arrival
| Time | 2026-05-06 09:30 |
|---|---|
| Airport | Homer Airport (PAHO) |
| Time | Latitude | Longitude | Altitude | Speed | Heading |
|---|---|---|---|---|---|
| 2026-05-06 08:28 | 60.49430 | -145.47543 | 53 ft | 0 kts | 114° |
| 2026-05-06 08:50 | 60.49430 | -145.47542 | 53 ft | 1 kts | 114° |
| 2026-05-06 08:50 | 60.49423 | -145.47510 | 53 ft | 5 kts | 114° |
| 2026-05-06 08:50 | 60.49396 | -145.47442 | 47 ft | 7 kts | 120° |
| 2026-05-06 08:51 | 60.49373 | -145.47327 | 53 ft | 11 kts | 114° |
| 2026-05-06 08:51 | 60.49338 | -145.47169 | 53 ft | 14 kts | 112° |
| 2026-05-06 08:51 | 60.49302 | -145.47004 | 53 ft | 9 kts | 114° |
| 2026-05-06 08:51 | 60.49270 | -145.46960 | 51 ft | 6 kts | 197° |
| 2026-05-06 08:52 | 60.49220 | -145.47013 | 51 ft | 10 kts | 205° |
| 2026-05-06 08:52 | 60.49146 | -145.47081 | 53 ft | 13 kts | 204° |
| 2026-05-06 08:52 | 60.49083 | -145.46985 | 52 ft | 14 kts | 115° |
| 2026-05-06 08:52 | 60.49039 | -145.46791 | 55 ft | 16 kts | 115° |
| 2026-05-06 08:53 | 60.48987 | -145.46564 | 51 ft | 20 kts | 115° |
| 2026-05-06 08:53 | 60.48926 | -145.46291 | 53 ft | 23 kts | 114° |
| 2026-05-06 08:53 | 60.48892 | -145.46023 | 53 ft | 14 kts | 73° |
| 2026-05-06 08:53 | 60.48855 | -145.45884 | 52 ft | 15 kts | 200° |
| 2026-05-06 08:54 | 60.48859 | -145.46009 | 46 ft | 24 kts | 295° |
| 2026-05-06 08:54 | 60.49046 | -145.46844 | 54 ft | 104 kts | 294° |
| 2026-05-06 08:54 | 60.49440 | -145.48590 | 111 ft | 161 kts | 295° |
| 2026-05-06 08:54 | 60.49869 | -145.50706 | 905 ft | 156 kts | 290° |
| 2026-05-06 08:55 | 60.49889 | -145.52936 | 1420 ft | 175 kts | 241° |
| 2026-05-06 08:55 | 60.48999 | -145.54316 | 2397 ft | 162 kts | 186° |
| 2026-05-06 08:55 | 60.47896 | -145.54704 | 3198 ft | 171 kts | 194° |
| 2026-05-06 08:55 | 60.46640 | -145.55279 | 3608 ft | 194 kts | 189° |
| 2026-05-06 08:56 | 60.45383 | -145.56581 | 4140 ft | 220 kts | 215° |
| 2026-05-06 08:56 | 60.44153 | -145.58733 | 4529 ft | 250 kts | 216° |
| 2026-05-06 08:56 | 60.42791 | -145.61031 | 5515 ft | 256 kts | 216° |
| 2026-05-06 08:56 | 60.41423 | -145.63360 | 6692 ft | 259 kts | 217° |
| 2026-05-06 08:57 | 60.40507 | -145.64931 | 7389 ft | 262 kts | 217° |
| 2026-05-06 08:57 | 60.39162 | -145.67467 | 8430 ft | 270 kts | 229° |
| 2026-05-06 08:57 | 60.38389 | -145.70978 | 9466 ft | 282 kts | 257° |
| 2026-05-06 08:57 | 60.38404 | -145.74979 | 10442 ft | 292 kts | 276° |
| 2026-05-06 08:58 | 60.38819 | -145.79174 | 10849 ft | 319 kts | 280° |
| 2026-05-06 08:58 | 60.39361 | -145.83733 | 11086 ft | 347 kts | 281° |
| 2026-05-06 08:58 | 60.39968 | -145.88628 | 11479 ft | 367 kts | 281° |
| 2026-05-06 08:58 | 60.40590 | -145.93681 | 12407 ft | 370 kts | 281° |
| 2026-05-06 08:59 | 60.41199 | -145.98747 | 13459 ft | 371 kts | 281° |
| 2026-05-06 08:59 | 60.41798 | -146.03820 | 14386 ft | 373 kts | 281° |
| 2026-05-06 08:59 | 60.42392 | -146.08957 | 15174 ft | 377 kts | 280° |
| 2026-05-06 08:59 | 60.42984 | -146.14152 | 15926 ft | 382 kts | 280° |
| 2026-05-06 09:00 | 60.43580 | -146.19410 | 16748 ft | 385 kts | 280° |
| 2026-05-06 09:00 | 60.44180 | -146.24719 | 17598 ft | 389 kts | 280° |
| 2026-05-06 09:00 | 60.44785 | -146.30089 | 18378 ft | 393 kts | 280° |
| 2026-05-06 09:00 | 60.45393 | -146.35506 | 19079 ft | 396 kts | 280° |
| 2026-05-06 09:01 | 60.46002 | -146.40957 | 19807 ft | 398 kts | 279° |
| 2026-05-06 09:01 | 60.46615 | -146.46455 | 20467 ft | 403 kts | 280° |
| 2026-05-06 09:01 | 60.47228 | -146.52038 | 21080 ft | 407 kts | 278° |
| 2026-05-06 09:01 | 60.47462 | -146.57742 | 21741 ft | 406 kts | 264° |
| 2026-05-06 09:02 | 60.47068 | -146.63385 | 22454 ft | 404 kts | 254° |
| 2026-05-06 09:02 | 60.46129 | -146.68744 | 23108 ft | 404 kts | 243° |
| 2026-05-06 09:02 | 60.44912 | -146.73891 | 23725 ft | 406 kts | 242° |
| 2026-05-06 09:02 | 60.43671 | -146.78974 | 24239 ft | 409 kts | 242° |
| 2026-05-06 09:03 | 60.42403 | -146.84145 | 24766 ft | 411 kts | 242° |
| 2026-05-06 09:03 | 60.41134 | -146.89335 | 25298 ft | 412 kts | 242° |
| 2026-05-06 09:03 | 60.39866 | -146.94556 | 25805 ft | 414 kts | 242° |
| 2026-05-06 09:03 | 60.38598 | -146.99800 | 26290 ft | 416 kts | 242° |
| 2026-05-06 09:04 | 60.37328 | -147.05062 | 26765 ft | 418 kts | 242° |
| 2026-05-06 09:04 | 60.36049 | -147.10360 | 27216 ft | 420 kts | 242° |
| 2026-05-06 09:04 | 60.34767 | -147.15670 | 27660 ft | 422 kts | 242° |
| 2026-05-06 09:04 | 60.33476 | -147.21006 | 28125 ft | 423 kts | 242° |
| 2026-05-06 09:05 | 60.32187 | -147.26322 | 28770 ft | 420 kts | 242° |
| 2026-05-06 09:05 | 60.30911 | -147.31576 | 29549 ft | 414 kts | 242° |
| 2026-05-06 09:05 | 60.29648 | -147.36765 | 30203 ft | 411 kts | 241° |
| 2026-05-06 09:05 | 60.28383 | -147.41941 | 30549 ft | 413 kts | 241° |
| 2026-05-06 09:06 | 60.27105 | -147.47155 | 30837 ft | 417 kts | 241° |
| 2026-05-06 09:06 | 60.25812 | -147.52415 | 31130 ft | 420 kts | 241° |
| 2026-05-06 09:06 | 60.24510 | -147.57702 | 31448 ft | 423 kts | 241° |
| 2026-05-06 09:06 | 60.23195 | -147.63033 | 31699 ft | 427 kts | 242° |
| 2026-05-06 09:07 | 60.21872 | -147.68382 | 31919 ft | 429 kts | 242° |
| 2026-05-06 09:07 | 60.19219 | -147.79075 | 31915 ft | 430 kts | 241° |
| 2026-05-06 09:08 | 60.16566 | -147.89719 | 31933 ft | 424 kts | 241° |
| 2026-05-06 09:08 | 60.13913 | -148.00300 | 31936 ft | 424 kts | 241° |
| 2026-05-06 09:09 | 60.11247 | -148.10884 | 31939 ft | 425 kts | 241° |
| 2026-05-06 09:09 | 60.08576 | -148.21441 | 31907 ft | 425 kts | 241° |
| 2026-05-06 09:10 | 60.05887 | -148.32018 | 31893 ft | 426 kts | 241° |
| 2026-05-06 09:10 | 60.03190 | -148.42572 | 31899 ft | 426 kts | 241° |
| 2026-05-06 09:11 | 60.00479 | -148.53136 | 31911 ft | 427 kts | 240° |
| 2026-05-06 09:11 | 59.97759 | -148.63688 | 31893 ft | 427 kts | 240° |
| 2026-05-06 09:12 | 59.95045 | -148.74166 | 31880 ft | 428 kts | 240° |
| 2026-05-06 09:12 | 59.93657 | -148.79497 | 31087 ft | 436 kts | 240° |
| 2026-05-06 09:12 | 59.92267 | -148.84841 | 30220 ft | 434 kts | 240° |
| 2026-05-06 09:12 | 59.90870 | -148.90193 | 29106 ft | 435 kts | 240° |
| 2026-05-06 09:13 | 59.89518 | -148.95581 | 28005 ft | 436 kts | 245° |
| 2026-05-06 09:13 | 59.88519 | -149.01285 | 26906 ft | 438 kts | 252° |
| 2026-05-06 09:13 | 59.87912 | -149.07214 | 26077 ft | 435 kts | 261° |
| 2026-05-06 09:13 | 59.87658 | -149.13199 | 25268 ft | 432 kts | 263° |
| 2026-05-06 09:14 | 59.87424 | -149.19124 | 24480 ft | 427 kts | 263° |
| 2026-05-06 09:14 | 59.87186 | -149.24992 | 23707 ft | 423 kts | 262° |
| 2026-05-06 09:14 | 59.86941 | -149.30806 | 22837 ft | 420 kts | 262° |
| 2026-05-06 09:14 | 59.86690 | -149.36578 | 22021 ft | 415 kts | 262° |
| 2026-05-06 09:15 | 59.86436 | -149.42273 | 21243 ft | 411 kts | 263° |
| 2026-05-06 09:15 | 59.86181 | -149.47908 | 20477 ft | 406 kts | 263° |
| 2026-05-06 09:15 | 59.85908 | -149.53501 | 19704 ft | 405 kts | 262° |
| 2026-05-06 09:15 | 59.85643 | -149.59059 | 18940 ft | 402 kts | 263° |
| 2026-05-06 09:16 | 59.85400 | -149.64609 | 18153 ft | 399 kts | 263° |
| 2026-05-06 09:16 | 59.85143 | -149.70036 | 17316 ft | 399 kts | 263° |
| 2026-05-06 09:16 | 59.84870 | -149.75498 | 16552 ft | 394 kts | 263° |
| 2026-05-06 09:16 | 59.84598 | -149.80908 | 15786 ft | 392 kts | 264° |
| 2026-05-06 09:17 | 59.84345 | -149.86315 | 15043 ft | 392 kts | 264° |
| 2026-05-06 09:17 | 59.84105 | -149.91713 | 14313 ft | 390 kts | 264° |
| 2026-05-06 09:17 | 59.83841 | -149.97081 | 13562 ft | 390 kts | 264° |
| 2026-05-06 09:17 | 59.83578 | -150.02429 | 12738 ft | 387 kts | 264° |
| 2026-05-06 09:18 | 59.83309 | -150.07719 | 11983 ft | 383 kts | 263° |
| 2026-05-06 09:18 | 59.83038 | -150.12954 | 11239 ft | 379 kts | 264° |
| 2026-05-06 09:18 | 59.82768 | -150.18142 | 10585 ft | 374 kts | 264° |
| 2026-05-06 09:18 | 59.82507 | -150.23143 | 10465 ft | 355 kts | 263° |
| 2026-05-06 09:19 | 59.82259 | -150.27926 | 10314 ft | 340 kts | 263° |
| 2026-05-06 09:19 | 59.82020 | -150.32490 | 10172 ft | 326 kts | 264° |
| 2026-05-06 09:19 | 59.81789 | -150.36880 | 10032 ft | 313 kts | 263° |
| 2026-05-06 09:19 | 59.81570 | -150.41080 | 10001 ft | 296 kts | 264° |
| 2026-05-06 09:20 | 59.81359 | -150.45098 | 9987 ft | 286 kts | 263° |
| 2026-05-06 09:20 | 59.81133 | -150.48921 | 9667 ft | 282 kts | 262° |
| 2026-05-06 09:20 | 59.80920 | -150.52755 | 9200 ft | 276 kts | 263° |
| 2026-05-06 09:20 | 59.80719 | -150.56547 | 8640 ft | 276 kts | 262° |
| 2026-05-06 09:21 | 59.80519 | -150.60314 | 8152 ft | 272 kts | 262° |
| 2026-05-06 09:21 | 59.80321 | -150.64026 | 7621 ft | 269 kts | 262° |
| 2026-05-06 09:21 | 59.80123 | -150.67700 | 7125 ft | 265 kts | 262° |
| 2026-05-06 09:21 | 59.79928 | -150.71292 | 6761 ft | 259 kts | 262° |
| 2026-05-06 09:22 | 59.79731 | -150.74805 | 6404 ft | 253 kts | 262° |
| 2026-05-06 09:22 | 59.79540 | -150.78252 | 6026 ft | 248 kts | 262° |
| 2026-05-06 09:22 | 59.79351 | -150.81623 | 5679 ft | 244 kts | 262° |
| 2026-05-06 09:22 | 59.79162 | -150.84982 | 5383 ft | 246 kts | 262° |
| 2026-05-06 09:23 | 59.78966 | -150.88430 | 5035 ft | 255 kts | 262° |
| 2026-05-06 09:23 | 59.78768 | -150.91904 | 4933 ft | 251 kts | 262° |
| 2026-05-06 09:23 | 59.78581 | -150.95237 | 4789 ft | 235 kts | 262° |
| 2026-05-06 09:23 | 59.78402 | -150.98389 | 4681 ft | 225 kts | 262° |
| 2026-05-06 09:24 | 59.78232 | -151.01367 | 4607 ft | 209 kts | 262° |
| 2026-05-06 09:24 | 59.78071 | -151.04136 | 4509 ft | 194 kts | 262° |
| 2026-05-06 09:24 | 59.77922 | -151.06706 | 4395 ft | 181 kts | 261° |
| 2026-05-06 09:24 | 59.77774 | -151.09140 | 4231 ft | 174 kts | 257° |
| 2026-05-06 09:25 | 59.77291 | -151.11313 | 4046 ft | 173 kts | 238° |
| 2026-05-06 09:25 | 59.76661 | -151.13366 | 3851 ft | 174 kts | 236° |
| 2026-05-06 09:25 | 59.76006 | -151.15337 | 3644 ft | 168 kts | 235° |
| 2026-05-06 09:25 | 59.75360 | -151.17205 | 3430 ft | 161 kts | 234° |
| 2026-05-06 09:26 | 59.74713 | -151.19039 | 3282 ft | 177 kts | 234° |
| 2026-05-06 09:26 | 59.73951 | -151.21189 | 3083 ft | 199 kts | 234° |
| 2026-05-06 09:26 | 59.73167 | -151.23393 | 2836 ft | 193 kts | 234° |
| 2026-05-06 09:26 | 59.72408 | -151.25526 | 2600 ft | 186 kts | 234° |
| 2026-05-06 09:27 | 59.71677 | -151.27580 | 2350 ft | 180 kts | 234° |
| 2026-05-06 09:27 | 59.70968 | -151.29569 | 2128 ft | 173 kts | 234° |
| 2026-05-06 09:27 | 59.70288 | -151.31477 | 1892 ft | 166 kts | 234° |
| 2026-05-06 09:27 | 59.69638 | -151.33304 | 1677 ft | 158 kts | 234° |
| 2026-05-06 09:28 | 59.69016 | -151.35054 | 1470 ft | 153 kts | 234° |
| 2026-05-06 09:28 | 59.68434 | -151.36689 | 1313 ft | 142 kts | 234° |
| 2026-05-06 09:28 | 59.67884 | -151.38239 | 1087 ft | 133 kts | 234° |
| 2026-05-06 09:28 | 59.67356 | -151.39729 | 941 ft | 133 kts | 235° |
| 2026-05-06 09:29 | 59.66824 | -151.41240 | 790 ft | 134 kts | 234° |
| 2026-05-06 09:29 | 59.66296 | -151.42771 | 603 ft | 134 kts | 233° |
| 2026-05-06 09:29 | 59.65756 | -151.44291 | 402 ft | 136 kts | 233° |
| 2026-05-06 09:29 | 59.65203 | -151.45869 | 172 ft | 142 kts | 232° |
| 2026-05-06 09:30 | 59.64644 | -151.47423 | 90 ft | 129 kts | 236° |
| 2026-05-06 09:30 | 59.64239 | -151.48577 | 91 ft | 55 kts | 236° |
| 2026-05-06 09:30 | 59.64160 | -151.48792 | 91 ft | 5 kts | 234° |
| 2026-05-06 09:30 | 59.64150 | -151.48819 | 94 ft | 1 kts | 234° |
| 2026-05-06 09:31 | 59.64144 | -151.48836 | 92 ft | 1 kts | 236° |
| 2026-05-06 09:31 | 59.64157 | -151.48875 | 92 ft | 10 kts | 312° |
| 2026-05-06 09:31 | 59.64241 | -151.49004 | 91 ft | 19 kts | 324° |
| 2026-05-06 09:31 | 59.64278 | -151.49089 | 91 ft | 0 kts | 280° |
| 2026-05-06 09:32 | 59.64270 | -151.49110 | 91 ft | 6 kts | 225° |
| 2026-05-06 09:32 | 59.64247 | -151.49185 | 91 ft | 9 kts | 234° |
| 2026-05-06 09:32 | 59.64228 | -151.49238 | 90 ft | 1 kts | 238° |
| 2026-05-06 09:32 | 59.64244 | -151.49300 | 91 ft | 8 kts | 290° |
| 2026-05-06 09:33 | 59.64273 | -151.49335 | 91 ft | 2 kts | 15° |
| 2026-05-06 09:33 | 59.64282 | -151.49312 | 92 ft | 1 kts | 63° |
| 2026-05-06 09:33 | 59.64302 | -151.49248 | 91 ft | 4 kts | 57° |
| 2026-05-06 09:33 | 59.64308 | -151.49230 | 91 ft | 0 kts | 54° |
| 2026-05-06 09:38 | 59.64308 | -151.49229 | 92 ft | 0 kts | 53° |
| 2026-05-06 09:42 | 59.64309 | -151.49229 | 92 ft | 0 kts | 52° |